sensor_id;sensor_type;location;lat;lon;timestamp;P1;durP1;ratioP1;P2;durP2;ratioP2
51312;SDS011;37397;53.226;10.400;2022-08-14T00:01:56;6.25;;;4.28;;
51312;SDS011;37397;53.226;10.400;2022-08-14T00:04:27;6.22;;;4.15;;
51312;SDS011;37397;53.226;10.400;2022-08-14T00:07:00;5.63;;;3.72;;
51312;SDS011;37397;53.226;10.400;2022-08-14T00:09:28;6.85;;;3.70;;
51312;SDS011;37397;53.226;10.400;2022-08-14T00:11:58;7.18;;;3.78;;
51312;SDS011;37397;53.226;10.400;2022-08-14T00:14:25;8.43;;;3.95;;
51312;SDS011;37397;53.226;10.400;2022-08-14T00:16:54;6.50;;;4.10;;
51312;SDS011;37397;53.226;10.400;2022-08-14T00:19:21;4.80;;;3.80;;
51312;SDS011;37397;53.226;10.400;2022-08-14T00:21:49;5.93;;;4.13;;
51312;SDS011;37397;53.226;10.400;2022-08-14T00:24:20;7.35;;;4.10;;
51312;SDS011;37397;53.226;10.400;2022-08-14T00:26:54;5.55;;;3.78;;
51312;SDS011;37397;53.226;10.400;2022-08-14T00:29:20;4.72;;;3.55;;
51312;SDS011;37397;53.226;10.400;2022-08-14T00:31:52;4.88;;;3.80;;
51312;SDS011;37397;53.226;10.400;2022-08-14T00:34:22;5.03;;;3.58;;
51312;SDS011;37397;53.226;10.400;2022-08-14T00:37:09;4.82;;;3.65;;
51312;SDS011;37397;53.226;10.400;2022-08-14T00:39:37;5.25;;;3.47;;
51312;SDS011;37397;53.226;10.400;2022-08-14T00:42:05;5.90;;;3.67;;
51312;SDS011;37397;53.226;10.400;2022-08-14T00:44:46;6.40;;;3.55;;
51312;SDS011;37397;53.226;10.400;2022-08-14T00:47:14;6.45;;;4.05;;
51312;SDS011;37397;53.226;10.400;2022-08-14T00:49:41;4.20;;;3.47;;
51312;SDS011;37397;53.226;10.400;2022-08-14T00:52:11;5.82;;;3.50;;
51312;SDS011;37397;53.226;10.400;2022-08-14T00:54:42;5.38;;;3.97;;
51312;SDS011;37397;53.226;10.400;2022-08-14T00:57:10;7.03;;;4.07;;
51312;SDS011;37397;53.226;10.400;2022-08-14T00:59:37;6.93;;;3.78;;
51312;SDS011;37397;53.226;10.400;2022-08-14T01:02:05;6.22;;;4.03;;
51312;SDS011;37397;53.226;10.400;2022-08-14T01:04:35;5.93;;;3.88;;
51312;SDS011;37397;53.226;10.400;2022-08-14T01:07:20;4.95;;;3.70;;
51312;SDS011;37397;53.226;10.400;2022-08-14T01:09:52;5.03;;;3.75;;
51312;SDS011;37397;53.226;10.400;2022-08-14T01:12:22;5.97;;;3.80;;
51312;SDS011;37397;53.226;10.400;2022-08-14T01:15:06;5.00;;;3.80;;
51312;SDS011;37397;53.226;10.400;2022-08-14T01:17:35;6.70;;;3.70;;
51312;SDS011;37397;53.226;10.400;2022-08-14T01:20:20;7.03;;;4.20;;
51312;SDS011;37397;53.226;10.400;2022-08-14T01:23:11;4.90;;;3.40;;
51312;SDS011;37397;53.226;10.400;2022-08-14T01:25:43;6.55;;;3.95;;
51312;SDS011;37397;53.226;10.400;2022-08-14T01:28:11;6.85;;;4.20;;
51312;SDS011;37397;53.226;10.400;2022-08-14T01:30:58;5.07;;;3.72;;
51312;SDS011;37397;53.226;10.400;2022-08-14T01:33:27;5.25;;;3.75;;
51312;SDS011;37397;53.226;10.400;2022-08-14T01:35:55;7.25;;;3.80;;
51312;SDS011;37397;53.226;10.400;2022-08-14T01:38:46;5.30;;;3.50;;
51312;SDS011;37397;53.226;10.400;2022-08-14T01:41:17;5.05;;;3.65;;
51312;SDS011;37397;53.226;10.400;2022-08-14T01:43:56;5.78;;;3.90;;
51312;SDS011;37397;53.226;10.400;2022-08-14T01:46:34;5.00;;;3.75;;
51312;SDS011;37397;53.226;10.400;2022-08-14T01:49:04;5.28;;;3.75;;
51312;SDS011;37397;53.226;10.400;2022-08-14T01:51:33;6.28;;;3.90;;
51312;SDS011;37397;53.226;10.400;2022-08-14T01:54:23;9.38;;;3.60;;
51312;SDS011;37397;53.226;10.400;2022-08-14T01:57:03;7.35;;;3.60;;
51312;SDS011;37397;53.226;10.400;2022-08-14T01:59:37;6.13;;;3.90;;
51312;SDS011;37397;53.226;10.400;2022-08-14T02:02:09;6.22;;;4.28;;
51312;SDS011;37397;53.226;10.400;2022-08-14T02:04:45;7.95;;;3.78;;
51312;SDS011;37397;53.226;10.400;2022-08-14T02:07:23;7.40;;;3.72;;
51312;SDS011;37397;53.226;10.400;2022-08-14T02:10:10;5.65;;;4.15;;
51312;SDS011;37397;53.226;10.400;2022-08-14T02:12:41;7.45;;;3.78;;
51312;SDS011;37397;53.226;10.400;2022-08-14T02:15:19;6.68;;;3.78;;
51312;SDS011;37397;53.226;10.400;2022-08-14T02:17:47;6.18;;;4.25;;
51312;SDS011;37397;53.226;10.400;2022-08-14T02:20:15;5.30;;;3.45;;
51312;SDS011;37397;53.226;10.400;2022-08-14T02:25:19;5.53;;;3.80;;
51312;SDS011;37397;53.226;10.400;2022-08-14T02:27:46;4.85;;;3.70;;
51312;SDS011;37397;53.226;10.400;2022-08-14T02:30:34;4.60;;;3.60;;
51312;SDS011;37397;53.226;10.400;2022-08-14T02:33:04;5.85;;;3.83;;
51312;SDS011;37397;53.226;10.400;2022-08-14T02:35:32;7.80;;;4.43;;
51312;SDS011;37397;53.226;10.400;2022-08-14T02:38:06;5.32;;;3.65;;
51312;SDS011;37397;53.226;10.400;2022-08-14T02:40:37;4.68;;;3.60;;
51312;SDS011;37397;53.226;10.400;2022-08-14T02:43:05;5.72;;;3.40;;
51312;SDS011;37397;53.226;10.400;2022-08-14T02:45:33;6.25;;;3.35;;
51312;SDS011;37397;53.226;10.400;2022-08-14T02:48:10;6.70;;;4.03;;
51312;SDS011;37397;53.226;10.400;2022-08-14T02:50:59;7.03;;;3.47;;
51312;SDS011;37397;53.226;10.400;2022-08-14T02:53:27;7.53;;;3.95;;
51312;SDS011;37397;53.226;10.400;2022-08-14T02:55:57;6.25;;;3.38;;
51312;SDS011;37397;53.226;10.400;2022-08-14T02:58:37;5.63;;;3.50;;
51312;SDS011;37397;53.226;10.400;2022-08-14T03:01:07;5.40;;;4.00;;
51312;SDS011;37397;53.226;10.400;2022-08-14T03:03:35;7.47;;;3.58;;
51312;SDS011;37397;53.226;10.400;2022-08-14T03:06:04;5.47;;;3.50;;
51312;SDS011;37397;53.226;10.400;2022-08-14T03:08:34;5.32;;;3.63;;
51312;SDS011;37397;53.226;10.400;2022-08-14T03:11:04;5.80;;;3.75;;
51312;SDS011;37397;53.226;10.400;2022-08-14T03:13:34;4.68;;;3.45;;
51312;SDS011;37397;53.226;10.400;2022-08-14T03:16:03;3.78;;;2.92;;
51312;SDS011;37397;53.226;10.400;2022-08-14T03:18:45;5.88;;;3.83;;
51312;SDS011;37397;53.226;10.400;2022-08-14T03:21:18;5.55;;;3.63;;
51312;SDS011;37397;53.226;10.400;2022-08-14T03:23:49;5.82;;;3.97;;
51312;SDS011;37397;53.226;10.400;2022-08-14T03:26:42;6.53;;;3.70;;
51312;SDS011;37397;53.226;10.400;2022-08-14T03:29:11;5.03;;;3.63;;
51312;SDS011;37397;53.226;10.400;2022-08-14T03:31:39;5.75;;;3.90;;
51312;SDS011;37397;53.226;10.400;2022-08-14T03:34:08;7.10;;;4.03;;
51312;SDS011;37397;53.226;10.400;2022-08-14T03:36:56;5.65;;;3.80;;
51312;SDS011;37397;53.226;10.400;2022-08-14T03:39:43;5.88;;;3.63;;
51312;SDS011;37397;53.226;10.400;2022-08-14T03:42:10;5.20;;;3.88;;
51312;SDS011;37397;53.226;10.400;2022-08-14T03:47:31;8.43;;;4.00;;
51312;SDS011;37397;53.226;10.400;2022-08-14T03:50:21;9.00;;;4.13;;
51312;SDS011;37397;53.226;10.400;2022-08-14T03:53:00;5.57;;;3.90;;
51312;SDS011;37397;53.226;10.400;2022-08-14T03:55:28;7.40;;;4.07;;
51312;SDS011;37397;53.226;10.400;2022-08-14T03:57:55;6.78;;;4.00;;
51312;SDS011;37397;53.226;10.400;2022-08-14T04:00:22;6.35;;;3.97;;
51312;SDS011;37397;53.226;10.400;2022-08-14T04:03:09;7.40;;;4.22;;
51312;SDS011;37397;53.226;10.400;2022-08-14T04:05:36;5.25;;;3.47;;
51312;SDS011;37397;53.226;10.400;2022-08-14T04:08:13;5.57;;;4.10;;
51312;SDS011;37397;53.226;10.400;2022-08-14T04:10:57;6.57;;;4.15;;
51312;SDS011;37397;53.226;10.400;2022-08-14T04:13:26;5.40;;;3.90;;
51312;SDS011;37397;53.226;10.400;2022-08-14T04:16:03;5.05;;;3.70;;
51312;SDS011;37397;53.226;10.400;2022-08-14T04:18:38;5.63;;;3.75;;
51312;SDS011;37397;53.226;10.400;2022-08-14T04:21:08;6.53;;;4.07;;
51312;SDS011;37397;53.226;10.400;2022-08-14T04:23:36;5.80;;;4.15;;
51312;SDS011;37397;53.226;10.400;2022-08-14T04:26:05;5.90;;;3.88;;
51312;SDS011;37397;53.226;10.400;2022-08-14T04:28:40;7.90;;;4.05;;
51312;SDS011;37397;53.226;10.400;2022-08-14T04:31:28;9.30;;;3.90;;
51312;SDS011;37397;53.226;10.400;2022-08-14T04:34:15;6.60;;;3.90;;
51312;SDS011;37397;53.226;10.400;2022-08-14T04:36:46;7.63;;;3.70;;
51312;SDS011;37397;53.226;10.400;2022-08-14T04:39:33;5.82;;;3.70;;
51312;SDS011;37397;53.226;10.400;2022-08-14T04:42:22;5.90;;;3.47;;
51312;SDS011;37397;53.226;10.400;2022-08-14T04:45:17;6.15;;;3.95;;
51312;SDS011;37397;53.226;10.400;2022-08-14T04:47:45;8.48;;;4.22;;
51312;SDS011;37397;53.226;10.400;2022-08-14T04:50:30;9.38;;;4.13;;
51312;SDS011;37397;53.226;10.400;2022-08-14T04:53:13;9.05;;;4.13;;
51312;SDS011;37397;53.226;10.400;2022-08-14T04:55:49;4.95;;;3.45;;
51312;SDS011;37397;53.226;10.400;2022-08-14T04:58:18;5.45;;;3.83;;
51312;SDS011;37397;53.226;10.400;2022-08-14T05:00:58;6.97;;;3.88;;
51312;SDS011;37397;53.226;10.400;2022-08-14T05:03:27;6.47;;;3.55;;
51312;SDS011;37397;53.226;10.400;2022-08-14T05:05:57;5.47;;;3.78;;
51312;SDS011;37397;53.226;10.400;2022-08-14T05:08:27;6.75;;;3.83;;
51312;SDS011;37397;53.226;10.400;2022-08-14T05:11:15;9.48;;;4.43;;
51312;SDS011;37397;53.226;10.400;2022-08-14T05:13:41;5.55;;;3.75;;
51312;SDS011;37397;53.226;10.400;2022-08-14T05:16:29;5.68;;;3.70;;
51312;SDS011;37397;53.226;10.400;2022-08-14T05:18:56;5.13;;;3.80;;
51312;SDS011;37397;53.226;10.400;2022-08-14T05:21:43;4.97;;;3.35;;
51312;SDS011;37397;53.226;10.400;2022-08-14T05:24:27;6.07;;;4.13;;
51312;SDS011;37397;53.226;10.400;2022-08-14T05:26:54;5.50;;;3.50;;
51312;SDS011;37397;53.226;10.400;2022-08-14T05:29:21;6.00;;;3.60;;
51312;SDS011;37397;53.226;10.400;2022-08-14T05:31:48;6.70;;;3.67;;
51312;SDS011;37397;53.226;10.400;2022-08-14T05:34:21;5.32;;;3.42;;
51312;SDS011;37397;53.226;10.400;2022-08-14T05:36:54;7.18;;;3.65;;
51312;SDS011;37397;53.226;10.400;2022-08-14T05:39:28;5.35;;;3.60;;
51312;SDS011;37397;53.226;10.400;2022-08-14T05:41:56;6.28;;;4.03;;
51312;SDS011;37397;53.226;10.400;2022-08-14T05:44:23;7.70;;;3.95;;
51312;SDS011;37397;53.226;10.400;2022-08-14T05:46:55;5.15;;;3.70;;
51312;SDS011;37397;53.226;10.400;2022-08-14T05:49:22;7.40;;;3.88;;
51312;SDS011;37397;53.226;10.400;2022-08-14T05:51:58;7.43;;;3.85;;
51312;SDS011;37397;53.226;10.400;2022-08-14T05:54:27;7.38;;;3.95;;
51312;SDS011;37397;53.226;10.400;2022-08-14T05:57:01;5.53;;;3.60;;
51312;SDS011;37397;53.226;10.400;2022-08-14T05:59:30;6.32;;;3.28;;
51312;SDS011;37397;53.226;10.400;2022-08-14T06:02:06;5.80;;;3.70;;
51312;SDS011;37397;53.226;10.400;2022-08-14T06:04:36;5.13;;;3.47;;
51312;SDS011;37397;53.226;10.400;2022-08-14T06:07:03;6.18;;;3.60;;
51312;SDS011;37397;53.226;10.400;2022-08-14T06:09:30;7.63;;;3.90;;
51312;SDS011;37397;53.226;10.400;2022-08-14T06:12:09;5.25;;;3.80;;
51312;SDS011;37397;53.226;10.400;2022-08-14T06:14:37;4.75;;;3.40;;
51312;SDS011;37397;53.226;10.400;2022-08-14T06:17:04;6.55;;;3.67;;
51312;SDS011;37397;53.226;10.400;2022-08-14T06:19:31;4.78;;;3.50;;
51312;SDS011;37397;53.226;10.400;2022-08-14T06:21:57;4.75;;;3.53;;
51312;SDS011;37397;53.226;10.400;2022-08-14T06:24:25;6.45;;;3.85;;
51312;SDS011;37397;53.226;10.400;2022-08-14T06:26:56;7.28;;;3.55;;
51312;SDS011;37397;53.226;10.400;2022-08-14T06:32:00;7.20;;;3.72;;
51312;SDS011;37397;53.226;10.400;2022-08-14T06:34:47;4.95;;;2.85;;
51312;SDS011;37397;53.226;10.400;2022-08-14T06:40:20;7.63;;;3.72;;
51312;SDS011;37397;53.226;10.400;2022-08-14T06:43:00;5.05;;;3.53;;
51312;SDS011;37397;53.226;10.400;2022-08-14T06:45:33;5.07;;;3.58;;
51312;SDS011;37397;53.226;10.400;2022-08-14T06:48:01;6.38;;;3.67;;
51312;SDS011;37397;53.226;10.400;2022-08-14T06:50:38;4.95;;;3.33;;
51312;SDS011;37397;53.226;10.400;2022-08-14T06:53:05;7.80;;;3.42;;
51312;SDS011;37397;53.226;10.400;2022-08-14T06:55:32;8.52;;;3.88;;
51312;SDS011;37397;53.226;10.400;2022-08-14T06:58:02;9.00;;;3.80;;
51312;SDS011;37397;53.226;10.400;2022-08-14T07:00:31;6.28;;;3.80;;
51312;SDS011;37397;53.226;10.400;2022-08-14T07:02:58;10.43;;;3.78;;
51312;SDS011;37397;53.226;10.400;2022-08-14T07:05:46;6.53;;;3.67;;
51312;SDS011;37397;53.226;10.400;2022-08-14T07:08:25;9.07;;;4.22;;
51312;SDS011;37397;53.226;10.400;2022-08-14T07:10:57;8.75;;;4.43;;
51312;SDS011;37397;53.226;10.400;2022-08-14T07:13:26;5.10;;;3.40;;
51312;SDS011;37397;53.226;10.400;2022-08-14T07:15:56;5.95;;;4.00;;
51312;SDS011;37397;53.226;10.400;2022-08-14T07:18:27;8.93;;;4.00;;
51312;SDS011;37397;53.226;10.400;2022-08-14T07:20:55;6.72;;;4.00;;
51312;SDS011;37397;53.226;10.400;2022-08-14T07:23:26;6.68;;;3.70;;
51312;SDS011;37397;53.226;10.400;2022-08-14T07:25:57;8.52;;;4.13;;
51312;SDS011;37397;53.226;10.400;2022-08-14T07:28:26;8.63;;;4.05;;
51312;SDS011;37397;53.226;10.400;2022-08-14T07:30:55;8.52;;;4.18;;
51312;SDS011;37397;53.226;10.400;2022-08-14T07:33:38;9.02;;;4.00;;
51312;SDS011;37397;53.226;10.400;2022-08-14T07:38:53;8.98;;;4.72;;
51312;SDS011;37397;53.226;10.400;2022-08-14T07:41:21;11.48;;;4.47;;
51312;SDS011;37397;53.226;10.400;2022-08-14T07:43:47;9.10;;;5.00;;
51312;SDS011;37397;53.226;10.400;2022-08-14T07:46:22;6.43;;;4.28;;
51312;SDS011;37397;53.226;10.400;2022-08-14T07:48:56;9.10;;;4.23;;
51312;SDS011;37397;53.226;10.400;2022-08-14T07:51:23;9.35;;;4.55;;
51312;SDS011;37397;53.226;10.400;2022-08-14T07:53:51;8.10;;;4.50;;
51312;SDS011;37397;53.226;10.400;2022-08-14T07:56:22;7.13;;;4.30;;
51312;SDS011;37397;53.226;10.400;2022-08-14T07:59:09;7.18;;;4.30;;
51312;SDS011;37397;53.226;10.400;2022-08-14T08:01:37;7.32;;;4.57;;
51312;SDS011;37397;53.226;10.400;2022-08-14T08:04:18;10.60;;;4.85;;
51312;SDS011;37397;53.226;10.400;2022-08-14T08:06:51;7.78;;;4.60;;
51312;SDS011;37397;53.226;10.400;2022-08-14T08:09:19;6.35;;;4.60;;
51312;SDS011;37397;53.226;10.400;2022-08-14T08:11:59;7.95;;;4.90;;
51312;SDS011;37397;53.226;10.400;2022-08-14T08:14:33;6.43;;;4.38;;
51312;SDS011;37397;53.226;10.400;2022-08-14T08:17:21;9.77;;;4.97;;
51312;SDS011;37397;53.226;10.400;2022-08-14T08:19:49;8.85;;;5.20;;
51312;SDS011;37397;53.226;10.400;2022-08-14T08:22:16;9.25;;;4.50;;
51312;SDS011;37397;53.226;10.400;2022-08-14T08:24:43;8.10;;;5.18;;
51312;SDS011;37397;53.226;10.400;2022-08-14T08:27:16;8.02;;;4.72;;
51312;SDS011;37397;53.226;10.400;2022-08-14T08:29:46;12.38;;;5.45;;
51312;SDS011;37397;53.226;10.400;2022-08-14T08:32:16;9.45;;;5.15;;
51312;SDS011;37397;53.226;10.400;2022-08-14T08:34:44;9.00;;;5.45;;
51312;SDS011;37397;53.226;10.400;2022-08-14T08:37:11;6.72;;;4.90;;
51312;SDS011;37397;53.226;10.400;2022-08-14T08:39:46;8.93;;;4.88;;
51312;SDS011;37397;53.226;10.400;2022-08-14T08:42:29;7.88;;;5.18;;
51312;SDS011;37397;53.226;10.400;2022-08-14T08:45:13;8.45;;;5.15;;
51312;SDS011;37397;53.226;10.400;2022-08-14T08:47:42;6.45;;;4.97;;
51312;SDS011;37397;53.226;10.400;2022-08-14T08:50:14;8.20;;;5.95;;
51312;SDS011;37397;53.226;10.400;2022-08-14T08:52:56;7.85;;;5.78;;
51312;SDS011;37397;53.226;10.400;2022-08-14T08:55:28;9.00;;;6.15;;
51312;SDS011;37397;53.226;10.400;2022-08-14T08:58:00;12.30;;;5.78;;
51312;SDS011;37397;53.226;10.400;2022-08-14T09:03:02;9.75;;;6.15;;
51312;SDS011;37397;53.226;10.400;2022-08-14T09:05:35;9.55;;;5.93;;
51312;SDS011;37397;53.226;10.400;2022-08-14T09:08:14;7.82;;;5.70;;
51312;SDS011;37397;53.226;10.400;2022-08-14T09:10:59;7.93;;;5.75;;
51312;SDS011;37397;53.226;10.400;2022-08-14T09:13:27;7.95;;;6.18;;
51312;SDS011;37397;53.226;10.400;2022-08-14T09:15:56;8.38;;;6.10;;
51312;SDS011;37397;53.226;10.400;2022-08-14T09:18:23;8.82;;;6.13;;
51312;SDS011;37397;53.226;10.400;2022-08-14T09:20:51;12.80;;;6.00;;
51312;SDS011;37397;53.226;10.400;2022-08-14T09:23:23;10.57;;;6.23;;
51312;SDS011;37397;53.226;10.400;2022-08-14T09:26:10;8.75;;;6.13;;
51312;SDS011;37397;53.226;10.400;2022-08-14T09:28:46;11.63;;;6.68;;
51312;SDS011;37397;53.226;10.400;2022-08-14T09:31:15;9.68;;;6.47;;
51312;SDS011;37397;53.226;10.400;2022-08-14T09:39:51;13.23;;;6.88;;
51312;SDS011;37397;53.226;10.400;2022-08-14T09:45:15;9.27;;;5.97;;
51312;SDS011;37397;53.226;10.400;2022-08-14T09:47:52;9.55;;;6.28;;
51312;SDS011;37397;53.226;10.400;2022-08-14T09:50:22;10.23;;;6.72;;
51312;SDS011;37397;53.226;10.400;2022-08-14T09:52:55;7.45;;;6.18;;
51312;SDS011;37397;53.226;10.400;2022-08-14T09:55:27;7.80;;;6.40;;
51312;SDS011;37397;53.226;10.400;2022-08-14T09:58:14;10.60;;;6.80;;
51312;SDS011;37397;53.226;10.400;2022-08-14T10:00:51;11.52;;;6.97;;
51312;SDS011;37397;53.226;10.400;2022-08-14T10:03:28;8.57;;;6.70;;
51312;SDS011;37397;53.226;10.400;2022-08-14T10:06:09;10.70;;;6.53;;
51312;SDS011;37397;53.226;10.400;2022-08-14T10:08:49;8.13;;;6.28;;
51312;SDS011;37397;53.226;10.400;2022-08-14T10:11:21;8.45;;;6.88;;
51312;SDS011;37397;53.226;10.400;2022-08-14T10:14:16;11.13;;;6.60;;
51312;SDS011;37397;53.226;10.400;2022-08-14T10:17:00;9.95;;;6.80;;
51312;SDS011;37397;53.226;10.400;2022-08-14T10:19:30;9.20;;;6.68;;
51312;SDS011;37397;53.226;10.400;2022-08-14T10:22:02;9.18;;;7.10;;
51312;SDS011;37397;53.226;10.400;2022-08-14T10:24:54;10.18;;;7.60;;
51312;SDS011;37397;53.226;10.400;2022-08-14T10:27:24;8.85;;;6.60;;
51312;SDS011;37397;53.226;10.400;2022-08-14T10:29:53;10.90;;;7.05;;
51312;SDS011;37397;53.226;10.400;2022-08-14T10:32:24;10.65;;;6.82;;
51312;SDS011;37397;53.226;10.400;2022-08-14T10:35:06;11.27;;;7.00;;
51312;SDS011;37397;53.226;10.400;2022-08-14T10:37:41;12.50;;;6.82;;
51312;SDS011;37397;53.226;10.400;2022-08-14T10:40:12;12.27;;;6.88;;
51312;SDS011;37397;53.226;10.400;2022-08-14T10:43:00;9.43;;;6.50;;
51312;SDS011;37397;53.226;10.400;2022-08-14T10:45:30;8.35;;;6.63;;
51312;SDS011;37397;53.226;10.400;2022-08-14T10:48:12;11.02;;;7.15;;
51312;SDS011;37397;53.226;10.400;2022-08-14T10:51:01;8.85;;;6.40;;
51312;SDS011;37397;53.226;10.400;2022-08-14T10:53:34;8.90;;;6.57;;
51312;SDS011;37397;53.226;10.400;2022-08-14T10:56:07;9.82;;;7.03;;
51312;SDS011;37397;53.226;10.400;2022-08-14T10:59:04;9.05;;;6.75;;
51312;SDS011;37397;53.226;10.400;2022-08-14T11:01:34;12.02;;;7.28;;
51312;SDS011;37397;53.226;10.400;2022-08-14T11:04:18;10.70;;;7.30;;
51312;SDS011;37397;53.226;10.400;2022-08-14T11:06:51;10.70;;;6.65;;
51312;SDS011;37397;53.226;10.400;2022-08-14T11:09:18;9.90;;;7.43;;
51312;SDS011;37397;53.226;10.400;2022-08-14T11:11:45;9.00;;;7.03;;
51312;SDS011;37397;53.226;10.400;2022-08-14T11:14:20;10.15;;;6.85;;
51312;SDS011;37397;53.226;10.400;2022-08-14T11:16:51;11.65;;;7.18;;
51312;SDS011;37397;53.226;10.400;2022-08-14T11:19:19;11.32;;;7.57;;
51312;SDS011;37397;53.226;10.400;2022-08-14T11:21:50;9.63;;;7.30;;
51312;SDS011;37397;53.226;10.400;2022-08-14T11:24:21;9.55;;;8.07;;
51312;SDS011;37397;53.226;10.400;2022-08-14T11:27:14;8.77;;;7.65;;
51312;SDS011;37397;53.226;10.400;2022-08-14T11:29:44;11.07;;;8.07;;
51312;SDS011;37397;53.226;10.400;2022-08-14T11:32:26;10.48;;;8.02;;
51312;SDS011;37397;53.226;10.400;2022-08-14T11:34:55;11.65;;;8.30;;
51312;SDS011;37397;53.226;10.400;2022-08-14T11:37:23;11.23;;;7.43;;
51312;SDS011;37397;53.226;10.400;2022-08-14T11:40:13;9.98;;;7.97;;
51312;SDS011;37397;53.226;10.400;2022-08-14T11:42:46;8.35;;;7.15;;
51312;SDS011;37397;53.226;10.400;2022-08-14T11:45:25;11.73;;;7.78;;
51312;SDS011;37397;53.226;10.400;2022-08-14T11:47:55;12.52;;;7.50;;
51312;SDS011;37397;53.226;10.400;2022-08-14T11:50:41;10.50;;;7.18;;
51312;SDS011;37397;53.226;10.400;2022-08-14T11:53:27;10.63;;;6.90;;
51312;SDS011;37397;53.226;10.400;2022-08-14T11:55:57;9.35;;;7.43;;
51312;SDS011;37397;53.226;10.400;2022-08-14T11:58:33;10.65;;;7.70;;
51312;SDS011;37397;53.226;10.400;2022-08-14T12:01:03;10.55;;;7.32;;
51312;SDS011;37397;53.226;10.400;2022-08-14T12:03:35;9.75;;;7.95;;
51312;SDS011;37397;53.226;10.400;2022-08-14T12:06:18;13.45;;;7.85;;
51312;SDS011;37397;53.226;10.400;2022-08-14T12:09:03;9.57;;;7.32;;
51312;SDS011;37397;53.226;10.400;2022-08-14T12:11:37;10.18;;;7.57;;
51312;SDS011;37397;53.226;10.400;2022-08-14T12:14:12;12.43;;;7.57;;
51312;SDS011;37397;53.226;10.400;2022-08-14T12:19:54;11.23;;;8.40;;
51312;SDS011;37397;53.226;10.400;2022-08-14T12:22:42;11.23;;;7.40;;
51312;SDS011;37397;53.226;10.400;2022-08-14T12:25:19;9.20;;;7.80;;
51312;SDS011;37397;53.226;10.400;2022-08-14T12:27:51;8.07;;;7.25;;
51312;SDS011;37397;53.226;10.400;2022-08-14T12:30:34;11.13;;;7.78;;
51312;SDS011;37397;53.226;10.400;2022-08-14T12:36:03;9.73;;;6.93;;
51312;SDS011;37397;53.226;10.400;2022-08-14T12:38:37;8.75;;;7.03;;
51312;SDS011;37397;53.226;10.400;2022-08-14T12:41:16;12.32;;;7.53;;
51312;SDS011;37397;53.226;10.400;2022-08-14T12:43:54;11.50;;;7.80;;
51312;SDS011;37397;53.226;10.400;2022-08-14T12:46:32;11.10;;;7.72;;
51312;SDS011;37397;53.226;10.400;2022-08-14T12:49:02;9.55;;;7.70;;
51312;SDS011;37397;53.226;10.400;2022-08-14T12:51:34;9.38;;;7.85;;
51312;SDS011;37397;53.226;10.400;2022-08-14T12:54:10;10.05;;;7.70;;
51312;SDS011;37397;53.226;10.400;2022-08-14T12:57:11;11.88;;;8.38;;
51312;SDS011;37397;53.226;10.400;2022-08-14T12:59:45;10.20;;;8.35;;
51312;SDS011;37397;53.226;10.400;2022-08-14T13:02:21;9.52;;;7.75;;
51312;SDS011;37397;53.226;10.400;2022-08-14T13:04:52;8.80;;;7.80;;
51312;SDS011;37397;53.226;10.400;2022-08-14T13:07:25;10.75;;;8.00;;
51312;SDS011;37397;53.226;10.400;2022-08-14T13:09:58;12.23;;;8.07;;
51312;SDS011;37397;53.226;10.400;2022-08-14T13:12:46;9.85;;;8.30;;
51312;SDS011;37397;53.226;10.400;2022-08-14T13:15:34;9.02;;;7.72;;
51312;SDS011;37397;53.226;10.400;2022-08-14T13:18:01;11.10;;;8.20;;
51312;SDS011;37397;53.226;10.400;2022-08-14T13:20:30;10.82;;;8.30;;
51312;SDS011;37397;53.226;10.400;2022-08-14T13:22:58;10.65;;;7.70;;
51312;SDS011;37397;53.226;10.400;2022-08-14T13:25:28;8.25;;;7.35;;
51312;SDS011;37397;53.226;10.400;2022-08-14T13:27:55;9.85;;;8.00;;
51312;SDS011;37397;53.226;10.400;2022-08-14T13:30:24;9.27;;;8.23;;
51312;SDS011;37397;53.226;10.400;2022-08-14T13:32:52;11.82;;;8.00;;
51312;SDS011;37397;53.226;10.400;2022-08-14T13:35:23;8.93;;;7.50;;
51312;SDS011;37397;53.226;10.400;2022-08-14T13:37:50;10.25;;;7.15;;
51312;SDS011;37397;53.226;10.400;2022-08-14T13:40:19;10.65;;;7.32;;
51312;SDS011;37397;53.226;10.400;2022-08-14T13:42:52;10.75;;;8.00;;
51312;SDS011;37397;53.226;10.400;2022-08-14T13:45:22;10.38;;;8.10;;
51312;SDS011;37397;53.226;10.400;2022-08-14T13:48:10;9.35;;;7.68;;
51312;SDS011;37397;53.226;10.400;2022-08-14T13:50:57;11.45;;;7.93;;
51312;SDS011;37397;53.226;10.400;2022-08-14T13:53:26;9.80;;;8.00;;
51312;SDS011;37397;53.226;10.400;2022-08-14T13:55:58;9.45;;;7.93;;
51312;SDS011;37397;53.226;10.400;2022-08-14T13:58:27;11.57;;;8.20;;
51312;SDS011;37397;53.226;10.400;2022-08-14T14:01:00;9.25;;;7.53;;
51312;SDS011;37397;53.226;10.400;2022-08-14T14:03:29;8.68;;;7.40;;
51312;SDS011;37397;53.226;10.400;2022-08-14T14:06:00;10.40;;;7.80;;
51312;SDS011;37397;53.226;10.400;2022-08-14T14:08:28;9.25;;;7.63;;
51312;SDS011;37397;53.226;10.400;2022-08-14T14:13:42;11.27;;;7.72;;
51312;SDS011;37397;53.226;10.400;2022-08-14T14:16:12;10.25;;;7.68;;
51312;SDS011;37397;53.226;10.400;2022-08-14T14:18:47;9.65;;;7.80;;
51312;SDS011;37397;53.226;10.400;2022-08-14T14:21:18;9.35;;;7.43;;
51312;SDS011;37397;53.226;10.400;2022-08-14T14:23:47;10.93;;;7.70;;
51312;SDS011;37397;53.226;10.400;2022-08-14T14:26:14;9.90;;;7.35;;
51312;SDS011;37397;53.226;10.400;2022-08-14T14:28:50;10.30;;;7.47;;
51312;SDS011;37397;53.226;10.400;2022-08-14T14:31:26;10.10;;;7.82;;
51312;SDS011;37397;53.226;10.400;2022-08-14T14:33:57;9.00;;;8.10;;
51312;SDS011;37397;53.226;10.400;2022-08-14T14:36:26;9.30;;;8.00;;
51312;SDS011;37397;53.226;10.400;2022-08-14T14:41:23;10.85;;;7.82;;
51312;SDS011;37397;53.226;10.400;2022-08-14T14:44:07;9.68;;;7.88;;
51312;SDS011;37397;53.226;10.400;2022-08-14T14:46:41;9.25;;;7.35;;
51312;SDS011;37397;53.226;10.400;2022-08-14T14:49:11;9.50;;;7.97;;
51312;SDS011;37397;53.226;10.400;2022-08-14T14:51:42;9.43;;;8.18;;
51312;SDS011;37397;53.226;10.400;2022-08-14T14:54:18;9.10;;;8.05;;
51312;SDS011;37397;53.226;10.400;2022-08-14T14:56:57;9.15;;;7.82;;
51312;SDS011;37397;53.226;10.400;2022-08-14T14:59:28;10.57;;;7.85;;
51312;SDS011;37397;53.226;10.400;2022-08-14T15:01:59;9.50;;;7.55;;
51312;SDS011;37397;53.226;10.400;2022-08-14T15:04:36;9.75;;;7.20;;
51312;SDS011;37397;53.226;10.400;2022-08-14T15:07:09;9.05;;;7.32;;
51312;SDS011;37397;53.226;10.400;2022-08-14T15:09:38;10.57;;;7.80;;
51312;SDS011;37397;53.226;10.400;2022-08-14T15:12:06;8.75;;;7.47;;
51312;SDS011;37397;53.226;10.400;2022-08-14T15:14:52;9.90;;;8.00;;
51312;SDS011;37397;53.226;10.400;2022-08-14T15:17:33;9.52;;;7.38;;
51312;SDS011;37397;53.226;10.400;2022-08-14T15:20:10;9.45;;;7.47;;
51312;SDS011;37397;53.226;10.400;2022-08-14T15:22:42;9.27;;;7.57;;
51312;SDS011;37397;53.226;10.400;2022-08-14T15:25:17;13.43;;;8.02;;
51312;SDS011;37397;53.226;10.400;2022-08-14T15:27:44;11.75;;;7.63;;
51312;SDS011;37397;53.226;10.400;2022-08-14T15:30:19;9.10;;;7.65;;
51312;SDS011;37397;53.226;10.400;2022-08-14T15:32:50;11.73;;;7.75;;
51312;SDS011;37397;53.226;10.400;2022-08-14T15:35:18;10.82;;;8.40;;
51312;SDS011;37397;53.226;10.400;2022-08-14T15:37:48;9.90;;;8.57;;
51312;SDS011;37397;53.226;10.400;2022-08-14T15:40:21;10.30;;;8.07;;
51312;SDS011;37397;53.226;10.400;2022-08-14T15:42:48;9.55;;;7.95;;
51312;SDS011;37397;53.226;10.400;2022-08-14T15:45:15;8.68;;;7.25;;
51312;SDS011;37397;53.226;10.400;2022-08-14T15:47:42;10.65;;;8.00;;